Leona Valley, California
Current Conditions -  °F | °C
As of 4:48 PM on Monday 22 Dec 2014 (Local Time) from KSDB Reporting Station
Clear Clear  
Wind Chill: 53°   Ceiling: Unl
Heat Index: 53°   Visibility: 10mi
Dew Point: 37°   Wind: 30mph
Humidity: 55%   Direction: 340°NNW
Pressure: 30.15"   Gusts: 43mph
Location:  34.6849°N, 118.558°W
Report Text: KSDB 230048Z AUTO 34026G37KT 10SM CLR 12/03 A3015 RMK AO2 PK WND 34037/0040 SLP182 T01170028
Loading
Personal Weather Stations






























Interactive Weather Map New forecast layout! Learn more

10-Day Weather Forecast

Advertisements
Track Severe Weather on mobile